sensor_id;sensor_type;location;lat;lon;timestamp;P1;durP1;ratioP1;P2;durP2;ratioP2
11064;SDS011;5585;52.530;7.320;2023-08-07T00:01:59;3.83;;;1.27;;
11064;SDS011;5585;52.530;7.320;2023-08-07T00:04:25;4.72;;;1.95;;
11064;SDS011;5585;52.530;7.320;2023-08-07T00:06:51;5.43;;;1.90;;
11064;SDS011;5585;52.530;7.320;2023-08-07T00:09:18;4.43;;;1.42;;
11064;SDS011;5585;52.530;7.320;2023-08-07T00:11:46;5.00;;;1.83;;
11064;SDS011;5585;52.530;7.320;2023-08-07T00:14:12;4.45;;;1.58;;
11064;SDS011;5585;52.530;7.320;2023-08-07T00:16:39;4.22;;;2.00;;
11064;SDS011;5585;52.530;7.320;2023-08-07T00:19:05;3.53;;;1.73;;
11064;SDS011;5585;52.530;7.320;2023-08-07T00:21:32;4.35;;;1.73;;
11064;SDS011;5585;52.530;7.320;2023-08-07T00:24:00;4.18;;;1.83;;
11064;SDS011;5585;52.530;7.320;2023-08-07T00:26:27;5.55;;;1.77;;
11064;SDS011;5585;52.530;7.320;2023-08-07T00:28:55;5.90;;;1.83;;
11064;SDS011;5585;52.530;7.320;2023-08-07T00:31:21;2.70;;;1.73;;
11064;SDS011;5585;52.530;7.320;2023-08-07T00:33:48;4.93;;;2.47;;
11064;SDS011;5585;52.530;7.320;2023-08-07T00:36:17;4.72;;;2.00;;
11064;SDS011;5585;52.530;7.320;2023-08-07T00:38:43;3.83;;;2.05;;
11064;SDS011;5585;52.530;7.320;2023-08-07T00:41:09;6.85;;;2.40;;
11064;SDS011;5585;52.530;7.320;2023-08-07T00:43:36;4.38;;;2.25;;
11064;SDS011;5585;52.530;7.320;2023-08-07T00:46:04;7.47;;;3.20;;
11064;SDS011;5585;52.530;7.320;2023-08-07T00:48:30;4.68;;;2.42;;
11064;SDS011;5585;52.530;7.320;2023-08-07T00:50:57;5.93;;;2.67;;
11064;SDS011;5585;52.530;7.320;2023-08-07T00:53:24;5.50;;;2.45;;
11064;SDS011;5585;52.530;7.320;2023-08-07T00:55:50;4.93;;;2.08;;
11064;SDS011;5585;52.530;7.320;2023-08-07T00:58:17;5.22;;;2.83;;
11064;SDS011;5585;52.530;7.320;2023-08-07T01:00:43;4.90;;;2.72;;
11064;SDS011;5585;52.530;7.320;2023-08-07T01:03:12;4.78;;;2.35;;
11064;SDS011;5585;52.530;7.320;2023-08-07T01:05:39;4.93;;;2.50;;
11064;SDS011;5585;52.530;7.320;2023-08-07T01:08:06;5.28;;;2.58;;
11064;SDS011;5585;52.530;7.320;2023-08-07T01:10:35;6.38;;;2.67;;
11064;SDS011;5585;52.530;7.320;2023-08-07T01:13:03;6.22;;;2.88;;
11064;SDS011;5585;52.530;7.320;2023-08-07T01:15:31;5.25;;;3.17;;
11064;SDS011;5585;52.530;7.320;2023-08-07T01:17:58;5.93;;;3.10;;
11064;SDS011;5585;52.530;7.320;2023-08-07T01:20:26;6.22;;;3.40;;
11064;SDS011;5585;52.530;7.320;2023-08-07T01:22:54;5.32;;;3.03;;
11064;SDS011;5585;52.530;7.320;2023-08-07T01:25:21;3.88;;;3.25;;
11064;SDS011;5585;52.530;7.320;2023-08-07T01:27:50;4.35;;;3.28;;
11064;SDS011;5585;52.530;7.320;2023-08-07T01:30:20;6.20;;;3.63;;
11064;SDS011;5585;52.530;7.320;2023-08-07T01:32:51;5.63;;;3.33;;
11064;SDS011;5585;52.530;7.320;2023-08-07T01:35:21;4.55;;;3.53;;
11064;SDS011;5585;52.530;7.320;2023-08-07T01:37:50;5.25;;;4.13;;
11064;SDS011;5585;52.530;7.320;2023-08-07T01:40:19;5.03;;;4.03;;
11064;SDS011;5585;52.530;7.320;2023-08-07T01:42:46;5.07;;;3.85;;
11064;SDS011;5585;52.530;7.320;2023-08-07T01:45:12;6.82;;;4.10;;
11064;SDS011;5585;52.530;7.320;2023-08-07T01:47:39;3.80;;;3.50;;
11064;SDS011;5585;52.530;7.320;2023-08-07T01:50:06;5.03;;;3.90;;
11064;SDS011;5585;52.530;7.320;2023-08-07T01:52:32;6.82;;;3.78;;
11064;SDS011;5585;52.530;7.320;2023-08-07T01:54:59;3.75;;;3.35;;
11064;SDS011;5585;52.530;7.320;2023-08-07T01:57:27;6.40;;;4.15;;
11064;SDS011;5585;52.530;7.320;2023-08-07T01:59:53;4.88;;;3.90;;
11064;SDS011;5585;52.530;7.320;2023-08-07T02:02:20;5.30;;;3.95;;
11064;SDS011;5585;52.530;7.320;2023-08-07T02:04:46;5.72;;;3.45;;
11064;SDS011;5585;52.530;7.320;2023-08-07T02:07:13;4.65;;;3.97;;
11064;SDS011;5585;52.530;7.320;2023-08-07T02:09:39;4.18;;;3.78;;
11064;SDS011;5585;52.530;7.320;2023-08-07T02:12:06;4.75;;;4.18;;
11064;SDS011;5585;52.530;7.320;2023-08-07T02:14:34;3.92;;;3.42;;
11064;SDS011;5585;52.530;7.320;2023-08-07T02:17:01;5.10;;;4.47;;
11064;SDS011;5585;52.530;7.320;2023-08-07T02:19:27;4.10;;;3.40;;
11064;SDS011;5585;52.530;7.320;2023-08-07T02:21:54;4.63;;;3.67;;
11064;SDS011;5585;52.530;7.320;2023-08-07T02:24:20;4.15;;;3.75;;
11064;SDS011;5585;52.530;7.320;2023-08-07T02:26:47;5.55;;;4.05;;
11064;SDS011;5585;52.530;7.320;2023-08-07T02:29:16;4.78;;;4.00;;
11064;SDS011;5585;52.530;7.320;2023-08-07T02:31:44;6.18;;;3.70;;
11064;SDS011;5585;52.530;7.320;2023-08-07T02:34:11;4.32;;;3.45;;
11064;SDS011;5585;52.530;7.320;2023-08-07T02:36:37;4.50;;;3.83;;
11064;SDS011;5585;52.530;7.320;2023-08-07T02:39:04;3.53;;;3.20;;
11064;SDS011;5585;52.530;7.320;2023-08-07T02:41:30;4.65;;;3.70;;
11064;SDS011;5585;52.530;7.320;2023-08-07T02:43:57;5.72;;;3.75;;
11064;SDS011;5585;52.530;7.320;2023-08-07T02:46:25;3.43;;;2.90;;
11064;SDS011;5585;52.530;7.320;2023-08-07T02:48:52;3.85;;;3.55;;
11064;SDS011;5585;52.530;7.320;2023-08-07T02:51:19;3.72;;;3.20;;
11064;SDS011;5585;52.530;7.320;2023-08-07T02:53:45;5.47;;;3.25;;
11064;SDS011;5585;52.530;7.320;2023-08-07T02:56:12;4.43;;;3.00;;
11064;SDS011;5585;52.530;7.320;2023-08-07T02:58:38;4.13;;;3.00;;
11064;SDS011;5585;52.530;7.320;2023-08-07T03:01:05;6.70;;;2.92;;
11064;SDS011;5585;52.530;7.320;2023-08-07T03:03:32;5.65;;;3.70;;
11064;SDS011;5585;52.530;7.320;2023-08-07T03:06:01;6.60;;;3.60;;
11064;SDS011;5585;52.530;7.320;2023-08-07T03:08:27;6.37;;;3.20;;
11064;SDS011;5585;52.530;7.320;2023-08-07T03:10:54;7.47;;;3.20;;
11064;SDS011;5585;52.530;7.320;2023-08-07T03:13:21;6.53;;;3.83;;
11064;SDS011;5585;52.530;7.320;2023-08-07T03:15:48;5.47;;;2.90;;
11064;SDS011;5585;52.530;7.320;2023-08-07T03:18:15;4.95;;;3.00;;
11064;SDS011;5585;52.530;7.320;2023-08-07T03:20:41;4.50;;;2.45;;
11064;SDS011;5585;52.530;7.320;2023-08-07T03:23:10;4.03;;;2.40;;
11064;SDS011;5585;52.530;7.320;2023-08-07T03:25:36;6.55;;;2.83;;
11064;SDS011;5585;52.530;7.320;2023-08-07T03:28:03;3.53;;;2.50;;
11064;SDS011;5585;52.530;7.320;2023-08-07T03:30:29;6.33;;;2.60;;
11064;SDS011;5585;52.530;7.320;2023-08-07T03:32:56;4.85;;;2.55;;
11064;SDS011;5585;52.530;7.320;2023-08-07T03:35:22;4.63;;;2.33;;
11064;SDS011;5585;52.530;7.320;2023-08-07T03:37:49;5.32;;;2.20;;
11064;SDS011;5585;52.530;7.320;2023-08-07T03:40:17;5.32;;;2.38;;
11064;SDS011;5585;52.530;7.320;2023-08-07T03:42:43;6.32;;;2.55;;
11064;SDS011;5585;52.530;7.320;2023-08-07T03:45:10;6.53;;;2.50;;
11064;SDS011;5585;52.530;7.320;2023-08-07T03:47:36;8.13;;;2.50;;
11064;SDS011;5585;52.530;7.320;2023-08-07T03:50:03;4.50;;;2.38;;
11064;SDS011;5585;52.530;7.320;2023-08-07T03:52:29;7.47;;;2.10;;
11064;SDS011;5585;52.530;7.320;2023-08-07T03:54:56;3.95;;;2.17;;
11064;SDS011;5585;52.530;7.320;2023-08-07T03:57:24;3.78;;;1.80;;
11064;SDS011;5585;52.530;7.320;2023-08-07T03:59:51;5.30;;;2.03;;
11064;SDS011;5585;52.530;7.320;2023-08-07T04:02:19;7.50;;;2.90;;
11064;SDS011;5585;52.530;7.320;2023-08-07T04:04:45;6.05;;;1.95;;
11064;SDS011;5585;52.530;7.320;2023-08-07T04:07:12;3.30;;;1.50;;
11064;SDS011;5585;52.530;7.320;2023-08-07T04:09:38;6.75;;;2.15;;
11064;SDS011;5585;52.530;7.320;2023-08-07T04:12:05;5.97;;;1.90;;
11064;SDS011;5585;52.530;7.320;2023-08-07T04:14:33;4.05;;;1.75;;
11064;SDS011;5585;52.530;7.320;2023-08-07T04:17:00;6.55;;;1.80;;
11064;SDS011;5585;52.530;7.320;2023-08-07T04:19:27;4.60;;;1.65;;
11064;SDS011;5585;52.530;7.320;2023-08-07T04:21:53;7.95;;;2.10;;
11064;SDS011;5585;52.530;7.320;2023-08-07T04:24:20;7.20;;;2.20;;
11064;SDS011;5585;52.530;7.320;2023-08-07T04:26:46;5.93;;;2.05;;
11064;SDS011;5585;52.530;7.320;2023-08-07T04:29:13;5.80;;;1.80;;
11064;SDS011;5585;52.530;7.320;2023-08-07T04:31:41;2.47;;;1.52;;
11064;SDS011;5585;52.530;7.320;2023-08-07T04:34:07;3.47;;;1.40;;
11064;SDS011;5585;52.530;7.320;2023-08-07T04:36:33;6.32;;;1.65;;
11064;SDS011;5585;52.530;7.320;2023-08-07T04:39:00;4.85;;;1.63;;
11064;SDS011;5585;52.530;7.320;2023-08-07T04:41:26;4.78;;;1.58;;
11064;SDS011;5585;52.530;7.320;2023-08-07T04:43:53;4.97;;;1.58;;
11064;SDS011;5585;52.530;7.320;2023-08-07T04:46:19;5.18;;;1.52;;
11064;SDS011;5585;52.530;7.320;2023-08-07T04:48:47;4.10;;;1.50;;
11064;SDS011;5585;52.530;7.320;2023-08-07T04:51:14;5.40;;;1.50;;
11064;SDS011;5585;52.530;7.320;2023-08-07T04:53:40;5.68;;;1.73;;
11064;SDS011;5585;52.530;7.320;2023-08-07T04:56:07;6.43;;;1.67;;
11064;SDS011;5585;52.530;7.320;2023-08-07T04:58:33;3.92;;;1.63;;
11064;SDS011;5585;52.530;7.320;2023-08-07T05:01:00;5.80;;;1.60;;
11064;SDS011;5585;52.530;7.320;2023-08-07T05:03:26;6.40;;;2.25;;
11064;SDS011;5585;52.530;7.320;2023-08-07T05:05:59;4.72;;;1.85;;
11064;SDS011;5585;52.530;7.320;2023-08-07T05:08:25;4.57;;;1.75;;
11064;SDS011;5585;52.530;7.320;2023-08-07T05:10:52;6.25;;;1.73;;
11064;SDS011;5585;52.530;7.320;2023-08-07T05:13:18;5.00;;;1.60;;
11064;SDS011;5585;52.530;7.320;2023-08-07T05:15:46;5.18;;;1.60;;
11064;SDS011;5585;52.530;7.320;2023-08-07T05:18:13;6.63;;;2.25;;
11064;SDS011;5585;52.530;7.320;2023-08-07T05:20:39;6.40;;;2.50;;
11064;SDS011;5585;52.530;7.320;2023-08-07T05:23:07;6.93;;;2.22;;
11064;SDS011;5585;52.530;7.320;2023-08-07T05:25:34;5.40;;;1.95;;
11064;SDS011;5585;52.530;7.320;2023-08-07T05:28:00;7.05;;;2.25;;
11064;SDS011;5585;52.530;7.320;2023-08-07T05:30:27;5.85;;;1.80;;
11064;SDS011;5585;52.530;7.320;2023-08-07T05:32:53;5.03;;;2.17;;
11064;SDS011;5585;52.530;7.320;2023-08-07T05:35:20;5.00;;;1.73;;
11064;SDS011;5585;52.530;7.320;2023-08-07T05:37:46;7.55;;;1.58;;
11064;SDS011;5585;52.530;7.320;2023-08-07T05:40:14;6.78;;;2.10;;
11064;SDS011;5585;52.530;7.320;2023-08-07T05:42:41;4.82;;;1.60;;
11064;SDS011;5585;52.530;7.320;2023-08-07T05:45:08;4.82;;;1.50;;
11064;SDS011;5585;52.530;7.320;2023-08-07T05:47:35;5.97;;;1.77;;
11064;SDS011;5585;52.530;7.320;2023-08-07T05:50:01;4.00;;;1.73;;
11064;SDS011;5585;52.530;7.320;2023-08-07T05:52:28;3.08;;;1.80;;
11064;SDS011;5585;52.530;7.320;2023-08-07T05:54:55;3.28;;;1.17;;
11064;SDS011;5585;52.530;7.320;2023-08-07T05:57:23;2.90;;;1.33;;
11064;SDS011;5585;52.530;7.320;2023-08-07T05:59:49;3.80;;;1.58;;
11064;SDS011;5585;52.530;7.320;2023-08-07T06:02:15;3.35;;;1.77;;
11064;SDS011;5585;52.530;7.320;2023-08-07T06:04:42;3.97;;;1.60;;
11064;SDS011;5585;52.530;7.320;2023-08-07T06:07:08;3.30;;;1.27;;
11064;SDS011;5585;52.530;7.320;2023-08-07T06:09:35;2.10;;;1.40;;
11064;SDS011;5585;52.530;7.320;2023-08-07T06:12:02;3.20;;;1.48;;
11064;SDS011;5585;52.530;7.320;2023-08-07T06:14:30;2.28;;;1.33;;
11064;SDS011;5585;52.530;7.320;2023-08-07T06:16:56;3.35;;;1.50;;
11064;SDS011;5585;52.530;7.320;2023-08-07T06:19:25;2.97;;;1.60;;
11064;SDS011;5585;52.530;7.320;2023-08-07T06:21:52;3.17;;;1.73;;
11064;SDS011;5585;52.530;7.320;2023-08-07T06:24:19;5.03;;;1.70;;
11064;SDS011;5585;52.530;7.320;2023-08-07T06:26:45;5.05;;;2.20;;
11064;SDS011;5585;52.530;7.320;2023-08-07T06:29:12;3.97;;;1.80;;
11064;SDS011;5585;52.530;7.320;2023-08-07T06:31:40;2.78;;;1.60;;
11064;SDS011;5585;52.530;7.320;2023-08-07T06:34:09;4.68;;;1.88;;
11064;SDS011;5585;52.530;7.320;2023-08-07T06:36:35;6.65;;;2.50;;
11064;SDS011;5585;52.530;7.320;2023-08-07T06:39:02;7.07;;;2.25;;
11064;SDS011;5585;52.530;7.320;2023-08-07T06:41:29;3.78;;;2.00;;
11064;SDS011;5585;52.530;7.320;2023-08-07T06:43:55;5.80;;;3.33;;
11064;SDS011;5585;52.530;7.320;2023-08-07T06:46:22;5.68;;;2.97;;
11064;SDS011;5585;52.530;7.320;2023-08-07T06:48:53;5.22;;;2.67;;
11064;SDS011;5585;52.530;7.320;2023-08-07T06:51:19;5.45;;;2.55;;
11064;SDS011;5585;52.530;7.320;2023-08-07T06:53:46;4.82;;;2.20;;
11064;SDS011;5585;52.530;7.320;2023-08-07T06:56:12;7.53;;;3.53;;
11064;SDS011;5585;52.530;7.320;2023-08-07T06:58:39;4.53;;;2.22;;
11064;SDS011;5585;52.530;7.320;2023-08-07T07:01:05;5.10;;;2.03;;
11064;SDS011;5585;52.530;7.320;2023-08-07T07:03:32;4.60;;;2.28;;
11064;SDS011;5585;52.530;7.320;2023-08-07T07:06:00;6.00;;;2.55;;
11064;SDS011;5585;52.530;7.320;2023-08-07T07:08:26;4.30;;;2.00;;
11064;SDS011;5585;52.530;7.320;2023-08-07T07:10:53;4.25;;;1.95;;
11064;SDS011;5585;52.530;7.320;2023-08-07T07:13:19;4.28;;;2.15;;
11064;SDS011;5585;52.530;7.320;2023-08-07T07:15:46;4.53;;;2.38;;
11064;SDS011;5585;52.530;7.320;2023-08-07T07:18:12;5.88;;;2.70;;
11064;SDS011;5585;52.530;7.320;2023-08-07T07:20:39;4.70;;;1.95;;
11064;SDS011;5585;52.530;7.320;2023-08-07T07:23:07;5.28;;;2.60;;
11064;SDS011;5585;52.530;7.320;2023-08-07T07:25:33;4.88;;;2.17;;
11064;SDS011;5585;52.530;7.320;2023-08-07T07:27:59;7.32;;;2.42;;
11064;SDS011;5585;52.530;7.320;2023-08-07T07:30:26;6.32;;;2.42;;
11064;SDS011;5585;52.530;7.320;2023-08-07T07:32:52;4.90;;;2.03;;
11064;SDS011;5585;52.530;7.320;2023-08-07T07:35:19;7.63;;;2.90;;
11064;SDS011;5585;52.530;7.320;2023-08-07T07:37:45;6.05;;;2.83;;
11064;SDS011;5585;52.530;7.320;2023-08-07T07:40:13;7.78;;;2.70;;
11064;SDS011;5585;52.530;7.320;2023-08-07T07:42:40;10.43;;;3.15;;
11064;SDS011;5585;52.530;7.320;2023-08-07T07:45:07;6.55;;;2.08;;
11064;SDS011;5585;52.530;7.320;2023-08-07T07:47:33;8.38;;;2.60;;
11064;SDS011;5585;52.530;7.320;2023-08-07T07:50:06;7.20;;;2.15;;
11064;SDS011;5585;52.530;7.320;2023-08-07T07:52:33;9.40;;;2.45;;
11064;SDS011;5585;52.530;7.320;2023-08-07T07:55:00;7.82;;;2.22;;
11064;SDS011;5585;52.530;7.320;2023-08-07T07:57:28;4.13;;;1.73;;
11064;SDS011;5585;52.530;7.320;2023-08-07T07:59:54;5.45;;;2.03;;
11064;SDS011;5585;52.530;7.320;2023-08-07T08:02:21;3.45;;;1.48;;
11064;SDS011;5585;52.530;7.320;2023-08-07T08:04:49;8.27;;;2.38;;
11064;SDS011;5585;52.530;7.320;2023-08-07T08:07:15;4.72;;;2.10;;
11064;SDS011;5585;52.530;7.320;2023-08-07T08:09:42;7.55;;;2.00;;
11064;SDS011;5585;52.530;7.320;2023-08-07T08:12:09;5.05;;;1.73;;
11064;SDS011;5585;52.530;7.320;2023-08-07T08:14:37;4.43;;;1.58;;
11064;SDS011;5585;52.530;7.320;2023-08-07T08:17:04;5.25;;;2.08;;
11064;SDS011;5585;52.530;7.320;2023-08-07T08:19:30;5.55;;;2.10;;
11064;SDS011;5585;52.530;7.320;2023-08-07T08:21:57;6.28;;;1.88;;
11064;SDS011;5585;52.530;7.320;2023-08-07T08:24:23;6.30;;;2.08;;
11064;SDS011;5585;52.530;7.320;2023-08-07T08:26:50;8.05;;;1.90;;
11064;SDS011;5585;52.530;7.320;2023-08-07T08:29:16;6.05;;;2.15;;
11064;SDS011;5585;52.530;7.320;2023-08-07T08:31:44;10.70;;;2.25;;
11064;SDS011;5585;52.530;7.320;2023-08-07T08:34:11;10.30;;;1.85;;
11064;SDS011;5585;52.530;7.320;2023-08-07T08:36:37;5.03;;;1.73;;
11064;SDS011;5585;52.530;7.320;2023-08-07T08:39:04;7.20;;;1.80;;
11064;SDS011;5585;52.530;7.320;2023-08-07T08:41:30;4.95;;;1.70;;
11064;SDS011;5585;52.530;7.320;2023-08-07T08:43:57;5.28;;;1.40;;
11064;SDS011;5585;52.530;7.320;2023-08-07T08:46:25;11.13;;;1.80;;
11064;SDS011;5585;52.530;7.320;2023-08-07T08:48:56;6.13;;;1.20;;
11064;SDS011;5585;52.530;7.320;2023-08-07T08:51:23;4.55;;;1.33;;
11064;SDS011;5585;52.530;7.320;2023-08-07T08:53:51;3.78;;;1.20;;
11064;SDS011;5585;52.530;7.320;2023-08-07T08:56:19;3.85;;;1.20;;
11064;SDS011;5585;52.530;7.320;2023-08-07T08:58:47;5.13;;;1.58;;
11064;SDS011;5585;52.530;7.320;2023-08-07T09:01:14;2.92;;;1.25;;
11064;SDS011;5585;52.530;7.320;2023-08-07T09:03:41;5.28;;;1.70;;
11064;SDS011;5585;52.530;7.320;2023-08-07T09:06:09;4.57;;;1.50;;
11064;SDS011;5585;52.530;7.320;2023-08-07T09:08:36;4.05;;;1.30;;
11064;SDS011;5585;52.530;7.320;2023-08-07T09:11:04;2.92;;;1.08;;
11064;SDS011;5585;52.530;7.320;2023-08-07T09:13:31;1.85;;;0.93;;
11064;SDS011;5585;52.530;7.320;2023-08-07T09:15:58;2.38;;;0.93;;
11064;SDS011;5585;52.530;7.320;2023-08-07T09:18:26;4.13;;;1.20;;
11064;SDS011;5585;52.530;7.320;2023-08-07T09:20:52;3.85;;;1.35;;
11064;SDS011;5585;52.530;7.320;2023-08-07T09:23:21;4.68;;;1.38;;
11064;SDS011;5585;52.530;7.320;2023-08-07T09:25:47;3.03;;;1.55;;
11064;SDS011;5585;52.530;7.320;2023-08-07T09:28:24;5.32;;;1.50;;
11064;SDS011;5585;52.530;7.320;2023-08-07T09:30:51;5.07;;;1.63;;
11064;SDS011;5585;52.530;7.320;2023-08-07T09:33:21;4.95;;;1.60;;
11064;SDS011;5585;52.530;7.320;2023-08-07T09:35:50;5.05;;;1.52;;
11064;SDS011;5585;52.530;7.320;2023-08-07T09:38:16;3.33;;;1.30;;
11064;SDS011;5585;52.530;7.320;2023-08-07T09:40:44;5.28;;;1.80;;
11064;SDS011;5585;52.530;7.320;2023-08-07T09:43:11;2.85;;;1.75;;
11064;SDS011;5585;52.530;7.320;2023-08-07T09:45:46;5.22;;;1.90;;
11064;SDS011;5585;52.530;7.320;2023-08-07T09:48:13;6.53;;;1.80;;
11064;SDS011;5585;52.530;7.320;2023-08-07T09:50:40;5.35;;;2.60;;
11064;SDS011;5585;52.530;7.320;2023-08-07T09:53:06;4.93;;;2.10;;
11064;SDS011;5585;52.530;7.320;2023-08-07T09:55:35;5.07;;;1.80;;
11064;SDS011;5585;52.530;7.320;2023-08-07T09:58:03;6.18;;;2.08;;
11064;SDS011;5585;52.530;7.320;2023-08-07T10:00:33;4.47;;;1.75;;
11064;SDS011;5585;52.530;7.320;2023-08-07T10:03:00;4.68;;;2.20;;
11064;SDS011;5585;52.530;7.320;2023-08-07T10:05:27;6.85;;;2.00;;
11064;SDS011;5585;52.530;7.320;2023-08-07T10:07:54;5.05;;;2.05;;
11064;SDS011;5585;52.530;7.320;2023-08-07T10:10:21;6.13;;;2.33;;
11064;SDS011;5585;52.530;7.320;2023-08-07T10:12:47;6.40;;;2.22;;
11064;SDS011;5585;52.530;7.320;2023-08-07T10:15:16;4.93;;;2.10;;
11064;SDS011;5585;52.530;7.320;2023-08-07T10:17:44;4.28;;;1.80;;
11064;SDS011;5585;52.530;7.320;2023-08-07T10:20:11;8.05;;;2.60;;
11064;SDS011;5585;52.530;7.320;2023-08-07T10:22:38;7.70;;;3.28;;
11064;SDS011;5585;52.530;7.320;2023-08-07T10:25:05;5.53;;;2.47;;
11064;SDS011;5585;52.530;7.320;2023-08-07T10:27:33;5.72;;;2.15;;
11064;SDS011;5585;52.530;7.320;2023-08-07T10:30:00;6.88;;;2.10;;
11064;SDS011;5585;52.530;7.320;2023-08-07T10:32:29;6.70;;;2.10;;
11064;SDS011;5585;52.530;7.320;2023-08-07T10:34:56;5.22;;;2.08;;
11064;SDS011;5585;52.530;7.320;2023-08-07T10:37:32;5.30;;;1.77;;
11064;SDS011;5585;52.530;7.320;2023-08-07T10:40:03;5.20;;;2.28;;
11064;SDS011;5585;52.530;7.320;2023-08-07T10:42:32;4.38;;;1.80;;
11064;SDS011;5585;52.530;7.320;2023-08-07T10:45:00;5.25;;;2.65;;
11064;SDS011;5585;52.530;7.320;2023-08-07T10:47:34;5.68;;;2.03;;
11064;SDS011;5585;52.530;7.320;2023-08-07T10:50:01;4.85;;;1.77;;
11064;SDS011;5585;52.530;7.320;2023-08-07T10:52:27;5.28;;;2.00;;
11064;SDS011;5585;52.530;7.320;2023-08-07T10:54:54;5.28;;;2.17;;
11064;SDS011;5585;52.530;7.320;2023-08-07T10:57:20;6.95;;;2.05;;
11064;SDS011;5585;52.530;7.320;2023-08-07T10:59:51;4.38;;;1.80;;
11064;SDS011;5585;52.530;7.320;2023-08-07T11:02:24;3.67;;;1.80;;
11064;SDS011;5585;52.530;7.320;2023-08-07T11:04:53;5.20;;;1.60;;
11064;SDS011;5585;52.530;7.320;2023-08-07T11:07:24;6.55;;;2.25;;
11064;SDS011;5585;52.530;7.320;2023-08-07T11:09:50;6.07;;;1.85;;
11064;SDS011;5585;52.530;7.320;2023-08-07T11:12:17;6.70;;;1.92;;
11064;SDS011;5585;52.530;7.320;2023-08-07T11:14:44;10.60;;;2.00;;
11064;SDS011;5585;52.530;7.320;2023-08-07T11:17:10;6.18;;;2.13;;
11064;SDS011;5585;52.530;7.320;2023-08-07T11:19:37;6.75;;;2.35;;
11064;SDS011;5585;52.530;7.320;2023-08-07T11:22:05;5.72;;;1.92;;
11064;SDS011;5585;52.530;7.320;2023-08-07T11:24:32;5.88;;;2.00;;
11064;SDS011;5585;52.530;7.320;2023-08-07T11:26:58;5.28;;;1.95;;
11064;SDS011;5585;52.530;7.320;2023-08-07T11:29:25;8.02;;;2.25;;
11064;SDS011;5585;52.530;7.320;2023-08-07T11:31:52;4.32;;;1.80;;
11064;SDS011;5585;52.530;7.320;2023-08-07T11:34:18;3.60;;;1.98;;
11064;SDS011;5585;52.530;7.320;2023-08-07T11:36:45;5.85;;;1.85;;
11064;SDS011;5585;52.530;7.320;2023-08-07T11:39:13;5.45;;;2.13;;
11064;SDS011;5585;52.530;7.320;2023-08-07T11:41:41;2.70;;;1.55;;
11064;SDS011;5585;52.530;7.320;2023-08-07T11:44:09;5.07;;;1.85;;
11064;SDS011;5585;52.530;7.320;2023-08-07T11:46:35;3.60;;;1.73;;
11064;SDS011;5585;52.530;7.320;2023-08-07T11:49:02;4.55;;;1.80;;
11064;SDS011;5585;52.530;7.320;2023-08-07T11:51:29;4.18;;;1.60;;
11064;SDS011;5585;52.530;7.320;2023-08-07T11:53:56;5.55;;;1.92;;
11064;SDS011;5585;52.530;7.320;2023-08-07T11:56:25;4.47;;;1.80;;
11064;SDS011;5585;52.530;7.320;2023-08-07T11:58:52;6.32;;;1.50;;
11064;SDS011;5585;52.530;7.320;2023-08-07T12:01:19;4.10;;;1.50;;
11064;SDS011;5585;52.530;7.320;2023-08-07T12:03:50;5.15;;;1.60;;
11064;SDS011;5585;52.530;7.320;2023-08-07T12:06:15;4.75;;;1.50;;
11064;SDS011;5585;52.530;7.320;2023-08-07T12:08:42;3.00;;;1.38;;
11064;SDS011;5585;52.530;7.320;2023-08-07T12:11:09;2.95;;;1.40;;
11064;SDS011;5585;52.530;7.320;2023-08-07T12:13:38;3.10;;;1.60;;
11064;SDS011;5585;52.530;7.320;2023-08-07T12:16:05;4.68;;;1.50;;
11064;SDS011;5585;52.530;7.320;2023-08-07T12:18:31;3.70;;;1.77;;
11064;SDS011;5585;52.530;7.320;2023-08-07T12:20:58;4.47;;;1.67;;
11064;SDS011;5585;52.530;7.320;2023-08-07T12:23:25;3.05;;;1.40;;
11064;SDS011;5585;52.530;7.320;2023-08-07T12:25:52;3.88;;;1.55;;
11064;SDS011;5585;52.530;7.320;2023-08-07T12:28:18;3.85;;;1.63;;
11064;SDS011;5585;52.530;7.320;2023-08-07T12:30:46;4.85;;;1.95;;
11064;SDS011;5585;52.530;7.320;2023-08-07T12:33:13;2.90;;;1.38;;
11064;SDS011;5585;52.530;7.320;2023-08-07T12:35:40;4.47;;;1.80;;
11064;SDS011;5585;52.530;7.320;2023-08-07T12:38:07;3.72;;;1.52;;
11064;SDS011;5585;52.530;7.320;2023-08-07T12:40:34;5.18;;;1.65;;
11064;SDS011;5585;52.530;7.320;2023-08-07T12:43:01;5.53;;;2.03;;
11064;SDS011;5585;52.530;7.320;2023-08-07T12:45:28;3.92;;;1.63;;
11064;SDS011;5585;52.530;7.320;2023-08-07T12:47:56;6.43;;;1.70;;
11064;SDS011;5585;52.530;7.320;2023-08-07T12:50:22;3.53;;;1.63;;
11064;SDS011;5585;52.530;7.320;2023-08-07T12:52:49;4.53;;;1.60;;
11064;SDS011;5585;52.530;7.320;2023-08-07T12:55:15;3.60;;;1.42;;
11064;SDS011;5585;52.530;7.320;2023-08-07T12:57:42;3.95;;;1.65;;
11064;SDS011;5585;52.530;7.320;2023-08-07T13:00:09;2.60;;;1.27;;
11064;SDS011;5585;52.530;7.320;2023-08-07T13:02:37;3.30;;;1.30;;
11064;SDS011;5585;52.530;7.320;2023-08-07T13:05:05;4.38;;;1.40;;
11064;SDS011;5585;52.530;7.320;2023-08-07T13:07:33;5.47;;;1.67;;
11064;SDS011;5585;52.530;7.320;2023-08-07T13:10:00;5.28;;;1.65;;
11064;SDS011;5585;52.530;7.320;2023-08-07T13:12:26;3.60;;;1.70;;
11064;SDS011;5585;52.530;7.320;2023-08-07T13:14:53;2.50;;;1.48;;
11064;SDS011;5585;52.530;7.320;2023-08-07T13:17:19;3.33;;;1.20;;
11064;SDS011;5585;52.530;7.320;2023-08-07T13:19:46;2.97;;;1.30;;
11064;SDS011;5585;52.530;7.320;2023-08-07T13:22:14;2.65;;;1.38;;
11064;SDS011;5585;52.530;7.320;2023-08-07T13:24:40;4.10;;;1.58;;
11064;SDS011;5585;52.530;7.320;2023-08-07T13:27:07;4.68;;;1.70;;
11064;SDS011;5585;52.530;7.320;2023-08-07T13:29:33;5.70;;;1.80;;
11064;SDS011;5585;52.530;7.320;2023-08-07T13:32:00;2.50;;;1.30;;
11064;SDS011;5585;52.530;7.320;2023-08-07T13:34:28;3.22;;;1.50;;
11064;SDS011;5585;52.530;7.320;2023-08-07T13:36:55;3.95;;;1.65;;
11064;SDS011;5585;52.530;7.320;2023-08-07T13:39:25;9.25;;;2.10;;
11064;SDS011;5585;52.530;7.320;2023-08-07T13:41:53;4.97;;;1.80;;
11064;SDS011;5585;52.530;7.320;2023-08-07T13:44:19;3.05;;;1.35;;
11064;SDS011;5585;52.530;7.320;2023-08-07T13:46:47;3.83;;;1.60;;
11064;SDS011;5585;52.530;7.320;2023-08-07T13:49:14;4.82;;;1.60;;
11064;SDS011;5585;52.530;7.320;2023-08-07T13:51:40;3.47;;;1.48;;
11064;SDS011;5585;52.530;7.320;2023-08-07T13:54:07;5.78;;;1.55;;
11064;SDS011;5585;52.530;7.320;2023-08-07T13:56:35;4.70;;;1.75;;
11064;SDS011;5585;52.530;7.320;2023-08-07T13:59:02;4.68;;;1.85;;
11064;SDS011;5585;52.530;7.320;2023-08-07T14:01:28;3.83;;;1.70;;
11064;SDS011;5585;52.530;7.320;2023-08-07T14:03:55;5.53;;;1.70;;
11064;SDS011;5585;52.530;7.320;2023-08-07T14:06:21;5.13;;;2.15;;
11064;SDS011;5585;52.530;7.320;2023-08-07T14:08:48;3.30;;;1.65;;
11064;SDS011;5585;52.530;7.320;2023-08-07T14:11:14;4.93;;;1.60;;
11064;SDS011;5585;52.530;7.320;2023-08-07T14:13:42;2.58;;;1.63;;
11064;SDS011;5585;52.530;7.320;2023-08-07T14:16:09;3.75;;;1.63;;
11064;SDS011;5585;52.530;7.320;2023-08-07T14:18:35;5.28;;;2.10;;
11064;SDS011;5585;52.530;7.320;2023-08-07T14:21:02;3.33;;;1.60;;
11064;SDS011;5585;52.530;7.320;2023-08-07T14:23:28;6.38;;;1.88;;
11064;SDS011;5585;52.530;7.320;2023-08-07T14:25:55;3.70;;;1.40;;
11064;SDS011;5585;52.530;7.320;2023-08-07T14:28:21;2.72;;;1.27;;
11064;SDS011;5585;52.530;7.320;2023-08-07T14:30:49;4.20;;;1.83;;
11064;SDS011;5585;52.530;7.320;2023-08-07T14:33:16;3.65;;;1.70;;
11064;SDS011;5585;52.530;7.320;2023-08-07T14:35:43;6.00;;;1.98;;
11064;SDS011;5585;52.530;7.320;2023-08-07T14:38:09;6.25;;;2.00;;
11064;SDS011;5585;52.530;7.320;2023-08-07T14:40:36;4.13;;;2.03;;
11064;SDS011;5585;52.530;7.320;2023-08-07T14:43:06;5.10;;;2.00;;
11064;SDS011;5585;52.530;7.320;2023-08-07T14:45:32;4.65;;;1.85;;
11064;SDS011;5585;52.530;7.320;2023-08-07T14:48:00;3.80;;;1.92;;
11064;SDS011;5585;52.530;7.320;2023-08-07T14:50:26;5.38;;;2.70;;
11064;SDS011;5585;52.530;7.320;2023-08-07T14:52:53;5.40;;;2.00;;
11064;SDS011;5585;52.530;7.320;2023-08-07T14:55:19;5.22;;;1.83;;
11064;SDS011;5585;52.530;7.320;2023-08-07T14:57:46;3.15;;;1.73;;
11064;SDS011;5585;52.530;7.320;2023-08-07T15:00:13;5.88;;;2.13;;